Time;durP1;ratioP1;P1;durP2;ratioP2;P2;SDS_P1;SDS_P2;PMS_P1;PMS_P2;Temp;Humidity;BMP_temperature;BMP_pressure;BME280_temperature;BME280_humidity;BME280_pressure;Samples;Min_cycle;Max_cycle;Signal;HPM_P1;HPM_P2
2022/12/08 00:01:15;;;;;;;10.55;7.63;;;;;;;;;;5095874;28;20055;-63
2022/12/08 00:03:41;;;;;;;11.73;9.57;;;;;;;;;;5095865;28;20103;-64
2022/12/08 00:11:40;;;;;;;10.90;6.88;;;;;;;;;;5096010;28;20036;-64
2022/12/08 00:14:05;;;;;;;11.27;6.63;;;;;;;;;;5095855;28;20073;-63
2022/12/08 00:16:31;;;;;;;10.45;8.02;;;;;;;;;;5095597;28;20042;-63
2022/12/08 00:18:57;;;;;;;10.85;8.25;;;;;;;;;;5095590;28;20031;-63
2022/12/08 00:21:22;;;;;;;11.30;8.63;;;;;;;;;;5095889;28;20358;-63
2022/12/08 00:23:48;;;;;;;10.82;8.25;;;;;;;;;;5095616;28;20073;-63
2022/12/08 00:26:13;;;;;;;11.20;8.63;;;;;;;;;;5095509;28;20028;-64
2022/12/08 00:28:38;;;;;;;12.43;8.40;;;;;;;;;;5095146;28;20438;-63
2022/12/08 00:31:07;;;;;;;12.30;8.20;;;;;;;;;;5095545;28;20034;-63
2022/12/08 00:33:33;;;;;;;9.48;8.02;;;;;;;;;;5077691;28;20027;-63
2022/12/08 00:36:03;;;;;;;10.18;8.15;;;;;;;;;;5095087;28;20029;-63
2022/12/08 00:38:29;;;;;;;;;;;;;;;;;;5095601;28;20059;-63
2022/12/08 00:40:54;;;;;;;12.10;8.00;;;;;;;;;;5095328;28;20005;-63
2022/12/08 00:43:19;;;;;;;9.60;7.75;;;;;;;;;;5095296;28;20024;-63
2022/12/08 00:45:45;;;;;;;10.40;7.63;;;;;;;;;;5095319;28;20454;-63
2022/12/08 00:48:10;;;;;;;8.70;7.30;;;;;;;;;;5095091;28;20039;-63
2022/12/08 00:50:36;;;;;;;8.90;7.32;;;;;;;;;;5077176;28;20115;-63
2022/12/08 00:53:01;;;;;;;8.85;6.95;;;;;;;;;;5095115;28;20020;-63
2022/12/08 00:55:27;;;;;;;9.38;7.40;;;;;;;;;;5094937;28;20028;-64
2022/12/08 00:57:52;;;;;;;9.35;7.63;;;;;;;;;;5094811;28;20035;-63
2022/12/08 01:00:18;;;;;;;9.32;7.22;;;;;;;;;;5094938;28;20054;-63
2022/12/08 01:02:43;;;;;;;9.27;7.47;;;;;;;;;;5094929;28;20027;-63
2022/12/08 01:05:08;;;;;;;8.38;7.13;;;;;;;;;;5094590;28;20553;-63
2022/12/08 01:07:34;;;;;;;10.68;7.90;;;;;;;;;;5094570;28;20032;-72
2022/12/08 01:10:01;;;;;;;10.55;8.32;;;;;;;;;;5094453;28;20028;-72
2022/12/08 01:12:30;;;;;;;10.60;8.35;;;;;;;;;;5094387;28;20027;-72
2022/12/08 01:14:55;;;;;;;8.40;7.45;;;;;;;;;;5094772;28;20040;-71
2022/12/08 01:17:20;;;;;;;10.18;8.10;;;;;;;;;;5094515;28;20023;-71
2022/12/08 01:19:46;;;;;;;11.48;9.00;;;;;;;;;;5094584;28;20492;-72
2022/12/08 01:22:11;;;;;;;12.00;8.77;;;;;;;;;;5094538;28;20480;-72
2022/12/08 01:24:37;;;;;;;9.93;7.50;;;;;;;;;;5094439;28;20032;-63
2022/12/08 01:27:02;;;;;;;9.48;7.07;;;;;;;;;;5094578;28;20047;-63
2022/12/08 01:29:27;;;;;;;10.95;8.85;;;;;;;;;;5094331;28;20036;-63
2022/12/08 01:31:53;;;;;;;9.35;7.47;;;;;;;;;;5094423;28;20349;-63
2022/12/08 01:34:18;;;;;;;9.40;7.28;;;;;;;;;;5094079;28;20039;-63
2022/12/08 01:36:43;;;;;;;9.18;7.05;;;;;;;;;;5094230;28;20081;-63
2022/12/08 01:39:14;;;;;;;9.88;7.28;;;;;;;;;;5093538;28;20114;-63
2022/12/08 01:41:40;;;;;;;;;;;;;;;;;;5094641;28;20028;-63
2022/12/08 01:44:12;;;;;;;7.78;5.72;;;;;;;;;;5094033;28;19936;-63
2022/12/08 01:46:41;;;;;;;8.38;6.28;;;;;;;;;;5093925;28;20073;-63
2022/12/08 01:49:10;;;;;;;8.02;6.80;;;;;;;;;;5093959;28;20454;-63
2022/12/08 01:51:41;;;;;;;7.65;5.47;;;;;;;;;;5093924;28;20035;-71
2022/12/08 01:54:06;;;;;;;7.43;5.72;;;;;;;;;;5093981;28;20039;-63
2022/12/08 01:56:38;;;;;;;8.00;6.35;;;;;;;;;;5094137;28;20012;-64
2022/12/08 01:59:03;;;;;;;8.32;6.38;;;;;;;;;;5075963;28;20107;-63
2022/12/08 02:01:29;;;;;;;8.15;6.15;;;;;;;;;;5076102;28;20055;-63
2022/12/08 02:03:54;;;;;;;8.10;6.53;;;;;;;;;;5093869;28;20600;-63
2022/12/08 02:06:19;;;;;;;12.27;7.65;;;;;;;;;;5093922;28;20020;-63
2022/12/08 02:08:46;;;;;;;9.75;7.13;;;;;;;;;;5094144;28;20024;-64
2022/12/08 02:11:11;;;;;;;9.50;6.93;;;;;;;;;;5093971;28;20464;-63
2022/12/08 02:13:38;;;;;;;7.03;5.45;;;;;;;;;;5094045;28;20036;-63
2022/12/08 02:16:22;;;;;;;8.68;7.32;;;;;;;;;;5094034;28;20024;-70
2022/12/08 02:18:56;;;;;;;9.52;7.78;;;;;;;;;;5093536;28;20480;-70
2022/12/08 02:21:28;;;;;;;10.88;9.10;;;;;;;;;;5093665;28;20024;-71
2022/12/08 02:24:14;;;;;;;13.02;9.00;;;;;;;;;;5093824;28;20020;-70
2022/12/08 02:26:46;;;;;;;9.68;8.18;;;;;;;;;;5093652;28;20032;-70
2022/12/08 02:29:23;;;;;;;8.45;6.53;;;;;;;;;;5093328;28;20117;-63
2022/12/08 02:31:58;;;;;;;10.73;7.00;;;;;;;;;;5093449;28;20032;-63
2022/12/08 02:34:32;;;;;;;8.00;6.53;;;;;;;;;;5093527;28;20449;-63
2022/12/08 02:37:17;;;;;;;6.78;5.88;;;;;;;;;;5091519;28;20492;-63
2022/12/08 02:39:47;;;;;;;6.50;5.75;;;;;;;;;;5093508;28;20386;-63
2022/12/08 02:42:36;;;;;;;7.97;5.78;;;;;;;;;;5093403;28;20032;-63
2022/12/08 02:45:08;;;;;;;10.50;8.25;;;;;;;;;;5093694;28;20516;-64
2022/12/08 02:47:34;;;;;;;12.00;8.02;;;;;;;;;;5075509;28;20446;-64
2022/12/08 02:49:59;;;;;;;9.35;8.13;;;;;;;;;;5093646;28;20032;-63
2022/12/08 02:52:24;;;;;;;9.35;7.13;;;;;;;;;;5097193;28;20377;-71
2022/12/08 02:54:58;;;;;;;10.60;8.18;;;;;;;;;;5079210;28;20020;-70
2022/12/08 02:57:23;;;;;;;9.65;7.90;;;;;;;;;;5097434;28;20031;-69
2022/12/08 02:59:51;;;;;;;8.98;7.45;;;;;;;;;;5097097;28;20470;-69
2022/12/08 03:02:26;;;;;;;9.88;7.82;;;;;;;;;;5097342;28;20036;-63
2022/12/08 03:04:54;;;;;;;10.35;7.45;;;;;;;;;;5097081;28;20020;-63
2022/12/08 03:07:20;;;;;;;10.75;7.63;;;;;;;;;;5097159;28;20467;-63
2022/12/08 03:09:49;;;;;;;10.38;8.10;;;;;;;;;;5096969;28;20166;-63
2022/12/08 03:12:19;;;;;;;9.30;7.28;;;;;;;;;;5096756;28;20068;-63
2022/12/08 03:14:48;;;;;;;8.13;6.88;;;;;;;;;;5096857;28;20108;-63
2022/12/08 03:17:14;;;;;;;8.48;7.28;;;;;;;;;;5096810;28;20016;-69
2022/12/08 03:19:41;;;;;;;9.52;6.78;;;;;;;;;;5096662;28;20036;-69
2022/12/08 03:22:07;;;;;;;9.02;6.40;;;;;;;;;;5097037;28;20397;-70
2022/12/08 03:24:37;;;;;;;9.75;8.10;;;;;;;;;;5096945;28;20027;-63
2022/12/08 03:27:11;;;;;;;8.05;6.90;;;;;;;;;;5078367;28;20110;-63
2022/12/08 03:29:36;;;;;;;8.73;7.30;;;;;;;;;;5096499;28;20473;-63
2022/12/08 03:32:15;;;;;;;8.15;6.88;;;;;;;;;;5096653;28;20028;-63
2022/12/08 03:34:42;;;;;;;8.85;6.93;;;;;;;;;;5096575;28;20028;-64
2022/12/08 03:37:08;;;;;;;9.05;7.45;;;;;;;;;;5096224;28;20374;-63
2022/12/08 03:39:33;;;;;;;8.90;7.25;;;;;;;;;;5096304;28;20040;-63
2022/12/08 03:41:59;;;;;;;8.75;6.85;;;;;;;;;;5096435;28;20023;-71
2022/12/08 03:44:24;;;;;;;7.78;6.93;;;;;;;;;;5096298;28;20382;-71
2022/12/08 03:46:50;;;;;;;9.00;7.22;;;;;;;;;;5077994;28;20024;-71
2022/12/08 03:49:15;;;;;;;8.63;6.47;;;;;;;;;;5096191;28;20040;-71
2022/12/08 03:51:40;;;;;;;7.80;7.00;;;;;;;;;;5096293;28;20035;-71
2022/12/08 03:54:06;;;;;;;8.55;6.57;;;;;;;;;;5096136;28;20036;-71
2022/12/08 03:56:33;;;;;;;7.93;7.13;;;;;;;;;;5096186;28;20020;-71
2022/12/08 03:58:59;;;;;;;7.93;6.72;;;;;;;;;;5095887;28;20040;-71
2022/12/08 04:01:25;;;;;;;7.72;6.93;;;;;;;;;;5096028;28;20020;-71
2022/12/08 04:03:50;;;;;;;7.20;6.50;;;;;;;;;;5095196;28;20016;-70
2022/12/08 04:06:16;;;;;;;9.00;6.63;;;;;;;;;;5095889;28;20016;-70
2022/12/08 04:08:42;;;;;;;8.88;6.72;;;;;;;;;;5095868;28;20036;-70
2022/12/08 04:11:07;;;;;;;9.68;7.03;;;;;;;;;;5096083;28;20031;-70
2022/12/08 04:13:33;;;;;;;8.20;7.03;;;;;;;;;;5096172;28;20024;-70
2022/12/08 04:15:59;;;;;;;9.75;7.68;;;;;;;;;;5096201;28;20070;-71
2022/12/08 04:18:25;;;;;;;9.43;7.75;;;;;;;;;;5095949;28;20450;-71
2022/12/08 04:20:50;;;;;;;8.93;7.47;;;;;;;;;;5095818;28;20031;-71
2022/12/08 04:23:15;;;;;;;10.07;8.05;;;;;;;;;;5095740;28;20020;-70
2022/12/08 04:25:40;;;;;;;9.88;8.07;;;;;;;;;;5095859;28;20484;-70
2022/12/08 04:28:06;;;;;;;8.40;7.55;;;;;;;;;;5095759;28;20029;-71
2022/12/08 04:30:32;;;;;;;10.50;7.75;;;;;;;;;;5095684;28;20016;-71
2022/12/08 04:32:57;;;;;;;11.25;7.88;;;;;;;;;;5095783;28;20105;-70
2022/12/08 04:35:22;;;;;;;8.88;7.97;;;;;;;;;;5095373;28;20044;-70
2022/12/08 04:37:48;;;;;;;10.32;8.63;;;;;;;;;;5095243;28;20555;-70
2022/12/08 04:40:13;;;;;;;9.82;8.73;;;;;;;;;;5095390;28;20020;-70
2022/12/08 04:42:39;;;;;;;12.27;9.77;;;;;;;;;;5095461;28;20101;-71
2022/12/08 04:45:05;;;;;;;10.98;8.82;;;;;;;;;;5077332;28;20046;-71
2022/12/08 04:47:31;;;;;;;9.43;8.40;;;;;;;;;;5095411;28;20058;-71
2022/12/08 04:49:57;;;;;;;9.98;8.98;;;;;;;;;;5077307;28;20047;-71
2022/12/08 04:52:22;;;;;;;11.52;9.98;;;;;;;;;;5095132;28;20086;-71
2022/12/08 04:54:47;;;;;;;10.90;9.77;;;;;;;;;;5095169;28;20107;-70
2022/12/08 04:57:13;;;;;;;11.68;10.25;;;;;;;;;;5094723;28;20035;-70
2022/12/08 04:59:38;;;;;;;10.82;9.50;;;;;;;;;;5076968;28;20375;-71
2022/12/08 05:02:03;;;;;;;11.52;9.52;;;;;;;;;;5095247;28;20029;-70
2022/12/08 05:04:29;;;;;;;10.05;8.98;;;;;;;;;;5094784;28;20034;-70
2022/12/08 05:06:54;;;;;;;10.07;8.98;;;;;;;;;;5094916;28;20032;-70
2022/12/08 05:09:20;;;;;;;11.23;9.23;;;;;;;;;;5094853;28;20450;-70
2022/12/08 05:11:45;;;;;;;9.90;8.90;;;;;;;;;;5095206;28;20064;-70
2022/12/08 05:14:11;;;;;;;9.80;8.80;;;;;;;;;;5094304;28;20039;-71
2022/12/08 05:16:37;;;;;;;11.65;9.48;;;;;;;;;;5094396;28;20032;-71
2022/12/08 05:19:02;;;;;;;17.20;12.05;;;;;;;;;;5094735;28;20032;-71
2022/12/08 05:21:28;;;;;;;15.02;11.40;;;;;;;;;;5094712;28;20100;-70
2022/12/08 05:23:53;;;;;;;16.92;11.80;;;;;;;;;;5094626;28;20442;-70
2022/12/08 05:26:18;;;;;;;17.38;12.48;;;;;;;;;;5094791;28;20478;-70
2022/12/08 05:28:44;;;;;;;16.90;12.05;;;;;;;;;;5094622;28;20031;-71
2022/12/08 05:31:10;;;;;;;13.43;10.93;;;;;;;;;;5094546;28;20454;-71
2022/12/08 05:33:36;;;;;;;12.00;10.02;;;;;;;;;;5094345;28;20103;-71
2022/12/08 05:36:01;;;;;;;11.98;10.23;;;;;;;;;;5094732;28;20059;-71
2022/12/08 05:38:28;;;;;;;13.75;10.98;;;;;;;;;;5093984;28;20055;-71
2022/12/08 05:40:53;;;;;;;12.60;9.95;;;;;;;;;;5094547;28;20031;-71
2022/12/08 05:43:19;;;;;;;11.35;10.15;;;;;;;;;;5094523;28;20016;-71
2022/12/08 05:45:44;;;;;;;12.18;10.40;;;;;;;;;;5076255;28;20032;-72
2022/12/08 05:48:10;;;;;;;14.38;11.15;;;;;;;;;;5094124;28;20046;-72
2022/12/08 05:50:36;;;;;;;15.90;11.90;;;;;;;;;;5094236;28;20377;-71
2022/12/08 05:53:03;;;;;;;16.52;12.25;;;;;;;;;;5094172;28;20036;-72
2022/12/08 05:55:28;;;;;;;16.58;12.18;;;;;;;;;;5094241;28;20031;-72
2022/12/08 05:57:54;;;;;;;18.13;12.13;;;;;;;;;;5076059;28;20119;-72
2022/12/08 06:00:19;;;;;;;15.63;12.18;;;;;;;;;;5093971;28;20032;-71
2022/12/08 06:02:45;;;;;;;18.45;13.60;;;;;;;;;;5093499;28;20563;-71
2022/12/08 06:05:10;;;;;;;15.45;12.55;;;;;;;;;;5093247;28;20363;-71
2022/12/08 06:07:35;;;;;;;19.23;14.85;;;;;;;;;;5093343;28;20095;-72
2022/12/08 06:10:01;;;;;;;22.15;16.60;;;;;;;;;;5093308;28;20505;-72
2022/12/08 06:12:26;;;;;;;32.97;23.30;;;;;;;;;;5075194;28;20362;-72
2022/12/08 06:14:52;;;;;;;32.13;19.95;;;;;;;;;;5093016;28;20039;-72
2022/12/08 06:17:17;;;;;;;39.38;25.08;;;;;;;;;;5074567;28;20035;-71
2022/12/08 06:19:42;;;;;;;52.70;30.70;;;;;;;;;;5092675;28;20028;-70
2022/12/08 06:22:08;;;;;;;32.75;23.20;;;;;;;;;;5093349;28;20428;-71
2022/12/08 06:24:33;;;;;;;33.22;23.58;;;;;;;;;;5093018;28;20055;-70
2022/12/08 06:27:01;;;;;;;55.28;30.88;;;;;;;;;;5096739;28;20038;-76
2022/12/08 06:29:26;;;;;;;58.92;33.72;;;;;;;;;;5096686;28;20055;-75
2022/12/08 06:31:52;;;;;;;71.00;38.10;;;;;;;;;;5097001;28;20438;-72
2022/12/08 06:34:17;;;;;;;61.65;34.83;;;;;;;;;;5097177;28;20032;-72
2022/12/08 06:36:42;;;;;;;52.90;31.02;;;;;;;;;;5096793;28;20048;-72
2022/12/08 06:39:08;;;;;;;41.20;24.40;;;;;;;;;;5097060;28;20036;-73
2022/12/08 06:42:42;;;;;;;51.00;30.40;;;;;;;;;;5096608;28;20423;-72
2022/12/08 06:44:19;;;;;;;42.63;26.30;;;;;;;;;;5096194;28;20032;-71
2022/12/08 06:46:44;;;;;;;44.05;27.90;;;;;;;;;;5096926;28;20027;-71
2022/12/08 06:49:10;;;;;;;56.92;36.15;;;;;;;;;;5096754;28;20032;-72
2022/12/08 06:52:05;;;;;;;51.47;30.45;;;;;;;;;;5096615;28;20016;-71
2022/12/08 06:54:31;;;;;;;46.38;29.98;;;;;;;;;;5096766;28;20035;-71
2022/12/08 06:56:56;;;;;;;38.50;26.15;;;;;;;;;;5078084;28;20016;-72
2022/12/08 06:59:24;;;;;;;32.00;21.08;;;;;;;;;;5096032;28;20028;-72
2022/12/08 07:01:50;;;;;;;26.92;17.73;;;;;;;;;;5077460;28;20457;-71
2022/12/08 07:04:15;;;;;;;26.90;16.98;;;;;;;;;;5096507;28;20056;-71
2022/12/08 07:07:02;;;;;;;27.02;17.17;;;;;;;;;;5096931;28;20008;-71
2022/12/08 07:13:02;;;;;;;44.08;27.23;;;;;;;;;;5097134;28;20023;-71
2022/12/08 07:19:02;;;;;;;40.78;25.45;;;;;;;;;;5096866;28;20488;-71
2022/12/08 07:25:02;;;;;;;42.78;26.58;;;;;;;;;;5096891;28;20031;-71
2022/12/08 07:31:03;;;;;;;42.63;27.45;;;;;;;;;;5096762;28;20039;-71
2022/12/08 07:40:38;;;;;;;38.80;25.45;;;;;;;;;;5096569;28;20174;-71
2022/12/08 07:43:19;;;;;;;40.72;26.92;;;;;;;;;;5096236;28;20127;-72
2022/12/08 07:45:44;;;;;;;37.35;25.15;;;;;;;;;;5096209;28;20067;-71
2022/12/08 07:48:11;;;;;;;39.35;24.23;;;;;;;;;;5095141;28;20044;-71
2022/12/08 07:50:36;;;;;;;35.85;25.08;;;;;;;;;;5095073;28;20085;-71
2022/12/08 07:53:01;;;;;;;33.78;22.48;;;;;;;;;;5095377;28;20028;-72
2022/12/08 07:55:27;;;;;;;33.42;22.42;;;;;;;;;;5096233;28;20095;-71
2022/12/08 07:58:17;;;;;;;35.92;22.20;;;;;;;;;;5096257;28;20008;-71
2022/12/08 08:04:18;;;;;;;37.22;22.85;;;;;;;;;;5096117;28;20448;-71
2022/12/08 08:10:19;;;;;;;47.13;25.73;;;;;;;;;;5096056;28;20574;-71
2022/12/08 08:16:19;;;;;;;39.28;19.48;;;;;;;;;;5095906;28;20050;-71
2022/12/08 08:22:20;;;;;;;35.92;20.13;;;;;;;;;;5095747;28;20472;-71
2022/12/08 08:28:20;;;;;;;22.58;13.30;;;;;;;;;;5095657;28;20467;-71
2022/12/08 08:34:20;;;;;;;13.30;9.70;;;;;;;;;;5095534;28;20389;-70
2022/12/08 08:44:48;;;;;;;;;;;;;;;;;;5090639;28;20070;-71
2022/12/08 08:51:09;;;;;;;14.70;9.52;;;;;;;;;;5095240;28;20480;-70
2022/12/08 08:57:10;;;;;;;11.35;8.77;;;;;;;;;;5094854;28;20046;-70
2022/12/08 09:03:11;;;;;;;9.43;8.43;;;;;;;;;;5095010;28;20382;-71
2022/12/08 09:09:11;;;;;;;16.98;11.38;;;;;;;;;;5094929;28;20030;-71
2022/12/08 09:15:11;;;;;;;18.40;11.40;;;;;;;;;;5094775;28;20027;-70
2022/12/08 09:21:19;;;;;;;10.52;8.38;;;;;;;;;;5094647;28;20086;-70
2022/12/08 09:27:19;;;;;;;14.80;10.35;;;;;;;;;;5094326;28;20027;-71
2022/12/08 09:33:20;;;;;;;13.90;10.25;;;;;;;;;;5094230;28;20141;-71
2022/12/08 09:43:21;;;;;;;13.95;9.68;;;;;;;;;;5090284;28;20492;-70
2022/12/08 09:49:23;;;;;;;14.82;10.40;;;;;;;;;;5094268;28;20580;-72
2022/12/08 09:55:28;;;;;;;11.25;7.93;;;;;;;;;;5094185;28;20031;-72
2022/12/08 10:01:30;;;;;;;12.85;9.02;;;;;;;;;;5093495;28;20035;-71
2022/12/08 10:07:31;;;;;;;10.88;8.60;;;;;;;;;;5093810;28;20031;-71
2022/12/08 10:13:39;;;;;;;9.98;7.93;;;;;;;;;;5093832;28;20485;-72
2022/12/08 10:16:07;;;;;;;7.95;6.38;;;;;;;;;;5093358;28;20343;-71
2022/12/08 10:18:33;;;;;;;11.13;8.20;;;;;;;;;;5092885;28;20044;-71
2022/12/08 10:21:19;;;;;;;8.65;7.35;;;;;;;;;;5092939;28;20024;-72
2022/12/08 10:23:47;;;;;;;13.25;11.13;;;;;;;;;;5093033;28;20017;-71
2022/12/08 10:26:14;;;;;;;10.40;9.15;;;;;;;;;;5093586;28;20012;-70
2022/12/08 10:32:19;;;;;;;8.57;5.88;;;;;;;;;;5093850;28;20035;-71
2022/12/08 10:38:21;;;;;;;6.65;5.22;;;;;;;;;;5093685;28;20130;-71
2022/12/08 10:48:51;;;;;;;7.47;5.95;;;;;;;;;;5093716;28;20039;-71
2022/12/08 10:54:53;;;;;;;8.07;5.70;;;;;;;;;;5093621;28;20031;-71
2022/12/08 11:00:55;;;;;;;8.07;6.38;;;;;;;;;;5093513;28;20074;-70
2022/12/08 11:03:31;;;;;;;9.15;5.72;;;;;;;;;;5092976;28;20028;-72
2022/12/08 11:06:00;;;;;;;7.50;5.38;;;;;;;;;;5093110;28;20024;-71
2022/12/08 11:08:27;;;;;;;7.28;5.45;;;;;;;;;;5093331;28;20027;-70
2022/12/08 11:10:52;;;;;;;9.55;6.88;;;;;;;;;;5093315;28;20458;-71
2022/12/08 11:16:55;;;;;;;8.50;7.05;;;;;;;;;;5097097;28;20031;-70
2022/12/08 11:22:55;;;;;;;8.63;6.13;;;;;;;;;;5096963;28;20030;-70
2022/12/08 11:28:55;;;;;;;8.10;5.55;;;;;;;;;;5096830;28;20027;-70
2022/12/08 11:35:01;;;;;;;7.35;5.47;;;;;;;;;;5096726;28;20037;-71
2022/12/08 11:41:14;;;;;;;8.32;6.60;;;;;;;;;;5103418;28;19958;-71
2022/12/08 11:51:17;;;;;;;6.88;5.53;;;;;;;;;;5096212;28;19915;-70
2022/12/08 11:57:19;;;;;;;8.75;5.97;;;;;;;;;;5096304;28;20094;-70
2022/12/08 11:59:48;;;;;;;6.88;5.75;;;;;;;;;;5095359;28;20067;-70
2022/12/08 12:02:21;;;;;;;6.85;4.53;;;;;;;;;;5095723;28;20481;-70
2022/12/08 12:04:51;;;;;;;5.43;4.72;;;;;;;;;;5095475;28;20485;-70
2022/12/08 12:07:35;;;;;;;5.07;4.03;;;;;;;;;;5095594;28;20111;-70
2022/12/08 12:10:00;;;;;;;7.05;5.35;;;;;;;;;;5095413;28;20024;-70
2022/12/08 12:12:39;;;;;;;8.00;5.23;;;;;;;;;;5095725;28;20067;-70
2022/12/08 12:18:39;;;;;;;5.47;4.75;;;;;;;;;;5095813;28;20031;-70
2022/12/08 12:24:42;;;;;;;6.50;4.10;;;;;;;;;;5094958;28;20027;-70
2022/12/08 12:30:55;;;;;;;5.75;4.18;;;;;;;;;;5095410;28;20035;-70
2022/12/08 12:37:05;;;;;;;5.68;4.53;;;;;;;;;;5095540;28;20031;-72
2022/12/08 12:43:09;;;;;;;6.07;4.10;;;;;;;;;;5095390;28;20186;-71
2022/12/08 12:53:11;;;;;;;4.43;3.72;;;;;;;;;;5095336;28;20027;-72
2022/12/08 13:10:10;;;;;;;4.20;3.80;;;;;;;;;;5094914;28;20042;-71
2022/12/08 13:16:13;;;;;;;4.90;4.28;;;;;;;;;;5094781;28;20382;-71
2022/12/08 13:22:33;;;;;;;4.20;3.80;;;;;;;;;;5094434;28;20047;-71
2022/12/08 13:28:33;;;;;;;4.43;4.03;;;;;;;;;;5094600;28;20023;-71
2022/12/08 13:34:36;;;;;;;4.65;3.50;;;;;;;;;;5094056;28;20374;-72
2022/12/08 13:40:37;;;;;;;4.60;4.20;;;;;;;;;;5094081;28;20109;-71
2022/12/08 13:46:45;;;;;;;5.35;4.80;;;;;;;;;;5094350;28;20402;-72
2022/12/08 14:04:48;;;;;;;5.55;4.97;;;;;;;;;;5052215;28;20029;-70
2022/12/08 14:07:13;;;;;;;6.40;5.80;;;;;;;;;;5050524;28;20090;-71
2022/12/08 14:09:39;;;;;;;6.00;4.78;;;;;;;;;;5050609;28;20037;-70
2022/12/08 14:12:05;;;;;;;11.70;6.47;;;;;;;;;;5050852;28;20086;-70
2022/12/08 14:14:30;;;;;;;13.88;6.70;;;;;;;;;;5050641;28;20123;-70
2022/12/08 14:16:59;;;;;;;19.73;7.78;;;;;;;;;;5050521;28;20041;-71
2022/12/08 14:19:26;;;;;;;12.88;6.97;;;;;;;;;;5050505;28;20040;-70
2022/12/08 14:22:11;;;;;;;7.55;5.60;;;;;;;;;;5050787;28;20036;-70
2022/12/08 14:24:36;;;;;;;6.10;5.05;;;;;;;;;;5050547;28;20464;-70
2022/12/08 14:27:03;;;;;;;5.82;5.00;;;;;;;;;;5050546;28;20032;-71
2022/12/08 14:29:39;;;;;;;12.20;8.70;;;;;;;;;;5051771;28;20032;-70
2022/12/08 14:39:16;;;;;;;20.70;12.45;;;;;;;;;;5051245;28;20410;-70
2022/12/08 14:42:15;;;;;;;37.33;23.45;;;;;;;;;;5051735;28;20400;-70
2022/12/08 14:48:24;;;;;;;46.47;30.02;;;;;;;;;;5055035;28;20079;-70
2022/12/08 14:54:24;;;;;;;26.15;16.13;;;;;;;;;;5054224;28;20056;-71
2022/12/08 14:56:51;;;;;;;32.03;20.70;;;;;;;;;;5054825;28;20037;-70
2022/12/08 14:59:21;;;;;;;23.50;15.90;;;;;;;;;;5055032;28;20526;-70
2022/12/08 15:01:49;;;;;;;23.02;15.30;;;;;;;;;;5054596;28;20037;-70
2022/12/08 15:04:18;;;;;;;19.45;14.90;;;;;;;;;;5054469;28;20048;-70
2022/12/08 15:13:32;;;;;;;34.00;21.10;;;;;;;;;;5076888;28;20028;-70
2022/12/08 15:19:33;;;;;;;36.10;19.95;;;;;;;;;;5076621;28;20059;-71
2022/12/08 15:25:34;;;;;;;45.05;25.35;;;;;;;;;;5076694;28;20441;-71
2022/12/08 15:31:34;;;;;;;29.58;18.15;;;;;;;;;;5076577;28;20027;-71
2022/12/08 15:37:35;;;;;;;22.25;14.23;;;;;;;;;;5076487;28;20052;-71
2022/12/08 15:43:36;;;;;;;126.75;53.58;;;;;;;;;;5076332;28;20473;-71
2022/12/08 15:49:37;;;;;;;120.68;49.13;;;;;;;;;;5076263;28;20031;-71
2022/12/08 15:59:39;;;;;;;256.58;77.13;;;;;;;;;;5095239;28;20082;-71
2022/12/08 16:05:40;;;;;;;50.55;25.45;;;;;;;;;;5096207;28;20031;-72
2022/12/08 16:18:36;;;;;;;25.80;18.63;;;;;;;;;;5095864;28;20054;-71
2022/12/08 16:24:36;;;;;;;19.88;13.70;;;;;;;;;;5095814;28;20575;-71
2022/12/08 16:30:37;;;;;;;25.77;15.75;;;;;;;;;;5095689;28;20062;-71
2022/12/08 16:36:38;;;;;;;30.67;17.42;;;;;;;;;;5095580;28;20073;-71
2022/12/08 16:42:42;;;;;;;32.42;20.23;;;;;;;;;;5095462;28;20039;-71
2022/12/08 16:48:43;;;;;;;81.78;40.33;;;;;;;;;;5095072;28;20027;-72
2022/12/08 16:58:50;;;;;;;50.35;28.48;;;;;;;;;;5095100;28;20023;-72
2022/12/08 17:01:48;;;;;;;66.07;34.20;;;;;;;;;;5076617;28;20055;-71
2022/12/08 17:04:14;;;;;;;52.53;28.10;;;;;;;;;;5092695;28;20032;-71
2022/12/08 17:06:39;;;;;;;67.35;31.65;;;;;;;;;;5075443;28;20035;-71
2022/12/08 17:09:04;;;;;;;109.50;53.00;;;;;;;;;;5093650;28;20028;-71
2022/12/08 17:11:31;;;;;;;583.70;303.10;;;;;;;;;;5094473;28;20024;-71
2022/12/08 17:13:57;;;;;;;662.05;326.63;;;;;;;;;;5094750;28;20028;-70
2022/12/08 17:16:23;;;;;;;372.50;168.80;;;;;;;;;;5093666;28;20062;-70
2022/12/08 17:18:52;;;;;;;495.50;237.85;;;;;;;;;;5091969;28;20040;-70
2022/12/08 17:21:18;;;;;;;558.85;286.63;;;;;;;;;;5075221;28;20012;-70
2022/12/08 17:23:44;;;;;;;553.88;297.38;;;;;;;;;;5093668;28;20116;-70
2022/12/08 17:26:09;;;;;;;440.20;237.43;;;;;;;;;;5093241;28;20095;-70
2022/12/08 17:28:35;;;;;;;130.68;78.82;;;;;;;;;;5093655;28;20078;-70
2022/12/08 17:31:01;;;;;;;89.57;72.70;;;;;;;;;;5093607;28;20100;-70
2022/12/08 17:37:02;;;;;;;75.47;48.58;;;;;;;;;;5094489;28;20114;-70
2022/12/08 17:43:03;;;;;;;69.97;46.03;;;;;;;;;;5094400;28;20026;-70
2022/12/08 17:49:14;;;;;;;39.97;25.58;;;;;;;;;;5094288;28;20112;-70
2022/12/08 17:58:49;;;;;;;77.22;47.10;;;;;;;;;;5094080;28;20487;-70
2022/12/08 18:04:49;;;;;;;105.30;65.75;;;;;;;;;;5094078;28;20050;-70
2022/12/08 18:10:50;;;;;;;45.80;26.80;;;;;;;;;;5094008;28;20031;-70
2022/12/08 18:13:16;;;;;;;55.67;30.55;;;;;;;;;;5092429;28;20396;-70
2022/12/08 18:15:41;;;;;;;48.22;28.80;;;;;;;;;;5087483;28;20405;-70
2022/12/08 18:18:06;;;;;;;39.65;24.17;;;;;;;;;;5086533;28;20119;-70
2022/12/08 18:20:32;;;;;;;46.55;29.15;;;;;;;;;;5087892;28;20024;-70
2022/12/08 18:22:57;;;;;;;59.28;38.88;;;;;;;;;;5072722;28;20036;-70
2022/12/08 18:25:22;;;;;;;76.93;48.05;;;;;;;;;;5091411;28;20422;-70
2022/12/08 18:27:48;;;;;;;84.78;48.80;;;;;;;;;;5091836;28;20023;-70
2022/12/08 18:30:15;;;;;;;71.93;39.85;;;;;;;;;;5091502;28;20024;-70
2022/12/08 18:32:41;;;;;;;64.32;32.35;;;;;;;;;;5091262;28;20443;-70
2022/12/08 18:35:06;;;;;;;68.15;35.13;;;;;;;;;;5091840;28;20096;-70
2022/12/08 18:37:32;;;;;;;94.07;59.40;;;;;;;;;;5091851;28;20471;-71
2022/12/08 18:39:58;;;;;;;63.80;40.38;;;;;;;;;;5090535;28;20028;-70
2022/12/08 18:42:23;;;;;;;40.33;26.45;;;;;;;;;;5091505;28;20036;-70
2022/12/08 18:44:49;;;;;;;35.85;23.23;;;;;;;;;;5090601;28;20026;-70
2022/12/08 18:47:14;;;;;;;30.67;20.25;;;;;;;;;;5091537;28;20687;-71
2022/12/08 18:53:14;;;;;;;110.13;57.00;;;;;;;;;;5097562;28;20022;-71
2022/12/08 19:03:44;;;;;;;113.68;72.55;;;;;;;;;;5097414;28;20530;-70
2022/12/08 19:09:45;;;;;;;58.15;35.33;;;;;;;;;;5097234;28;20035;-70
2022/12/08 19:15:46;;;;;;;68.25;38.53;;;;;;;;;;5096978;28;20071;-71
2022/12/08 19:18:37;;;;;;;93.35;53.47;;;;;;;;;;5097414;28;20020;-70
2022/12/08 19:21:03;;;;;;;136.13;101.18;;;;;;;;;;5071508;28;20385;-70
2022/12/08 19:23:28;;;;;;;92.25;57.83;;;;;;;;;;5090674;28;20020;-70
2022/12/08 19:25:54;;;;;;;132.82;79.35;;;;;;;;;;5072928;28;20036;-70
2022/12/08 19:28:19;;;;;;;90.07;59.47;;;;;;;;;;5091231;28;20020;-70
2022/12/08 19:30:44;;;;;;;86.20;58.00;;;;;;;;;;5091415;28;20032;-70
2022/12/08 19:33:10;;;;;;;443.95;309.77;;;;;;;;;;5088746;28;20101;-70
2022/12/08 19:46:04;;;;;;;81.03;41.05;;;;;;;;;;5096550;28;20476;-70
2022/12/08 19:52:06;;;;;;;34.15;20.95;;;;;;;;;;5096465;28;20031;-71
2022/12/08 20:02:17;;;;;;;33.03;21.98;;;;;;;;;;5096014;28;20038;-71
2022/12/08 20:08:32;;;;;;;38.50;23.00;;;;;;;;;;5096129;28;20527;-71
2022/12/08 20:14:32;;;;;;;101.10;48.78;;;;;;;;;;5096009;28;20066;-71
2022/12/08 20:20:32;;;;;;;89.93;46.00;;;;;;;;;;5095899;28;20432;-71
2022/12/08 20:26:32;;;;;;;71.93;39.30;;;;;;;;;;5095829;28;20070;-72
2022/12/08 20:32:32;;;;;;;58.78;33.72;;;;;;;;;;5095633;28;20069;-71
2022/12/08 20:38:32;;;;;;;52.35;31.98;;;;;;;;;;5095534;28;20055;-71
2022/12/08 20:44:32;;;;;;;73.13;50.55;;;;;;;;;;5095001;28;20166;-71
2022/12/08 20:50:32;;;;;;;52.33;33.83;;;;;;;;;;5095586;28;20090;-71
2022/12/08 20:56:32;;;;;;;37.47;26.65;;;;;;;;;;5095191;28;20400;-71
2022/12/08 21:07:00;;;;;;;;;;;;;;;;;;5095468;28;20078;-71
2022/12/08 21:13:14;;;;;;;56.10;31.45;;;;;;;;;;5094905;28;20031;-71
2022/12/08 21:19:18;;;;;;;56.92;32.10;;;;;;;;;;5094665;28;20043;-71
2022/12/08 21:25:18;;;;;;;62.97;36.30;;;;;;;;;;5094631;28;20027;-71
2022/12/08 21:27:48;;;;;;;66.47;36.45;;;;;;;;;;5094326;28;20024;-72
2022/12/08 21:30:13;;;;;;;55.55;33.28;;;;;;;;;;5093487;28;20450;-73
2022/12/08 21:32:39;;;;;;;57.40;32.10;;;;;;;;;;5093266;28;20092;-71
2022/12/08 21:35:05;;;;;;;77.78;34.65;;;;;;;;;;5094686;28;20026;-74
2022/12/08 21:37:30;;;;;;;91.05;36.97;;;;;;;;;;5094123;28;20028;-73
2022/12/08 21:39:55;;;;;;;82.80;37.05;;;;;;;;;;5094167;28;20166;-73
2022/12/08 21:45:05;;;;;;;88.50;42.25;;;;;;;;;;5076133;28;20038;-72
2022/12/08 21:47:30;;;;;;;81.20;39.38;;;;;;;;;;5094121;28;20020;-72
2022/12/08 21:49:56;;;;;;;70.55;37.83;;;;;;;;;;5094196;28;20036;-72
2022/12/08 21:52:21;;;;;;;88.90;44.22;;;;;;;;;;5094246;28;20074;-71
2022/12/08 21:54:46;;;;;;;100.47;52.78;;;;;;;;;;5093277;28;20039;-72
2022/12/08 21:57:12;;;;;;;90.65;47.85;;;;;;;;;;5092855;28;20028;-73
2022/12/08 21:59:37;;;;;;;97.97;48.58;;;;;;;;;;5093704;28;20020;-72